Time;durP1;ratioP1;P1;durP2;ratioP2;P2;SDS_P1;SDS_P2;PMS_P1;PMS_P2;Temp;Humidity;BMP_temperature;BMP_pressure;BME280_temperature;BME280_humidity;BME280_pressure;Samples;Min_cycle;Max_cycle;Signal;HPM_P1;HPM_P2
2021/05/27 00:00:37;;;;;;;1.40;1.30;;;11.40;99.90;;;;;;5096435;28;20292;-69
2021/05/27 00:03:04;;;;;;;1.35;1.25;;;11.40;99.90;;;;;;5096391;28;20301;-69
2021/05/27 00:05:31;;;;;;;1.77;1.45;;;11.50;99.90;;;;;;5096194;28;20204;-69
2021/05/27 00:07:58;;;;;;;1.45;1.20;;;11.50;99.90;;;;;;5096213;28;20250;-69
2021/05/27 00:10:27;;;;;;;3.00;1.60;;;11.50;99.90;;;;;;5096577;28;20297;-69
2021/05/27 00:12:54;;;;;;;1.20;1.20;;;11.50;99.90;;;;;;5096156;28;20202;-69
2021/05/27 00:15:24;;;;;;;1.52;1.42;;;11.50;99.90;;;;;;5095581;28;20647;-69
2021/05/27 00:17:51;;;;;;;2.05;1.50;;;11.50;99.90;;;;;;5095981;28;20289;-69
2021/05/27 00:20:18;;;;;;;4.90;1.40;;;11.50;99.90;;;;;;5096136;28;20206;-69
2021/05/27 00:22:44;;;;;;;1.48;1.20;;;11.50;99.90;;;;;;5096012;28;20568;-69
2021/05/27 00:25:12;;;;;;;1.70;1.38;;;11.40;99.90;;;;;;5095953;28;20198;-69
2021/05/27 00:27:39;;;;;;;1.58;1.48;;;11.40;99.90;;;;;;5095407;28;20206;-70
2021/05/27 00:30:07;;;;;;;1.35;1.25;;;11.40;99.90;;;;;;5095853;28;20208;-69
2021/05/27 00:32:33;;;;;;;2.17;1.60;;;11.40;99.90;;;;;;5095776;28;20204;-69
2021/05/27 00:35:00;;;;;;;1.60;1.40;;;11.30;99.90;;;;;;5094782;28;20217;-69
2021/05/27 00:37:27;;;;;;;3.40;1.73;;;11.30;99.90;;;;;;5095215;28;20293;-69
2021/05/27 00:39:53;;;;;;;1.70;1.60;;;11.40;99.90;;;;;;5095695;28;20367;-70
2021/05/27 00:42:19;;;;;;;1.67;1.58;;;11.40;99.90;;;;;;5095299;28;20815;-69
2021/05/27 00:44:58;;;;;;;1.60;1.48;;;11.40;99.90;;;;;;5095594;28;20201;-69
2021/05/27 00:47:24;;;;;;;2.05;1.55;;;11.40;99.90;;;;;;5095424;28;20230;-69
2021/05/27 00:49:51;;;;;;;2.08;1.50;;;11.50;99.90;;;;;;5095481;28;20222;-69
2021/05/27 00:52:18;;;;;;;1.80;1.67;;;11.50;99.90;;;;;;5095402;28;20208;-69
2021/05/27 00:54:45;;;;;;;2.00;1.80;;;11.50;99.90;;;;;;5095240;28;20218;-69
2021/05/27 00:57:18;;;;;;;1.83;1.60;;;11.50;99.90;;;;;;5095191;28;20258;-69
2021/05/27 00:59:44;;;;;;;2.80;1.50;;;11.50;99.90;;;;;;5095285;28;20256;-70
2021/05/27 01:02:10;;;;;;;1.45;1.35;;;11.50;99.90;;;;;;5095080;28;20660;-69
2021/05/27 01:04:36;;;;;;;1.73;1.60;;;11.40;99.90;;;;;;5095153;28;20285;-69
2021/05/27 01:07:03;;;;;;;1.48;1.30;;;11.50;99.90;;;;;;5094788;28;20631;-69
2021/05/27 01:09:30;;;;;;;1.60;1.50;;;11.50;99.90;;;;;;5095002;28;20253;-69
2021/05/27 01:11:56;;;;;;;2.33;1.88;;;11.50;99.90;;;;;;5094796;28;20283;-69
2021/05/27 01:17:03;;;;;;;1.73;1.38;;;11.40;99.90;;;;;;5094474;28;20194;-69
2021/05/27 01:19:30;;;;;;;2.28;1.40;;;11.40;99.90;;;;;;5094853;28;20651;-69
2021/05/27 01:21:57;;;;;;;3.78;2.20;;;11.40;99.90;;;;;;5094758;28;20208;-69
2021/05/27 01:24:24;;;;;;;3.15;1.50;;;11.40;99.90;;;;;;5094804;28;20251;-69
2021/05/27 01:26:50;;;;;;;1.92;1.77;;;11.50;99.90;;;;;;5094634;28;20571;-69
2021/05/27 01:29:16;;;;;;;1.70;1.58;;;11.50;99.90;;;;;;5094711;28;20218;-69
2021/05/27 01:31:43;;;;;;;1.40;1.30;;;11.50;99.90;;;;;;5095052;28;20296;-69
2021/05/27 01:34:10;;;;;;;1.80;1.70;;;11.50;99.90;;;;;;5094573;28;20198;-69
2021/05/27 01:36:36;;;;;;;1.88;1.70;;;11.50;99.90;;;;;;5094223;28;20288;-69
2021/05/27 01:39:09;;;;;;;2.28;1.90;;;11.50;99.90;;;;;;5094791;28;20309;-69
2021/05/27 01:41:36;;;;;;;1.55;1.35;;;11.50;99.90;;;;;;5094422;28;20567;-70
2021/05/27 01:44:02;;;;;;;1.52;1.42;;;11.50;99.90;;;;;;5094725;28;20296;-69
2021/05/27 01:46:29;;;;;;;2.08;1.45;;;11.50;99.90;;;;;;5093707;28;20566;-69
2021/05/27 01:48:55;;;;;;;1.50;1.40;;;11.50;99.90;;;;;;5094296;28;20312;-70
2021/05/27 01:51:21;;;;;;;2.47;1.90;;;11.50;99.90;;;;;;5094035;28;20288;-70
2021/05/27 01:53:48;;;;;;;2.15;1.95;;;11.50;99.90;;;;;;5094261;28;20209;-69
2021/05/27 01:56:15;;;;;;;2.30;1.70;;;11.50;99.90;;;;;;5093857;28;20387;-69
2021/05/27 01:58:42;;;;;;;2.25;2.05;;;11.60;99.90;;;;;;5094150;28;20230;-69
2021/05/27 02:01:08;;;;;;;1.88;1.60;;;11.60;99.90;;;;;;5093918;28;20208;-69
2021/05/27 02:03:35;;;;;;;2.00;1.63;;;11.60;99.90;;;;;;5094054;28;20198;-69
2021/05/27 02:06:01;;;;;;;2.45;2.25;;;11.50;99.90;;;;;;5093714;28;20236;-69
2021/05/27 02:08:28;;;;;;;1.98;1.75;;;11.50;99.90;;;;;;5094265;28;20279;-69
2021/05/27 02:10:54;;;;;;;1.70;1.60;;;11.50;99.90;;;;;;5094049;28;20288;-69
2021/05/27 02:13:22;;;;;;;1.65;1.55;;;11.50;99.90;;;;;;5094004;28;20198;-69
2021/05/27 02:15:49;;;;;;;2.40;1.75;;;11.40;99.90;;;;;;5093651;28;20217;-69
2021/05/27 02:18:15;;;;;;;1.98;1.75;;;11.40;99.90;;;;;;5093804;28;20607;-69
2021/05/27 02:20:42;;;;;;;1.80;1.70;;;11.40;99.90;;;;;;5093929;28;20209;-69
2021/05/27 02:23:08;;;;;;;1.40;1.30;;;11.40;99.90;;;;;;5093844;28;20255;-69
2021/05/27 02:25:34;;;;;;;1.80;1.70;;;11.40;99.90;;;;;;5093657;28;20292;-69
2021/05/27 02:28:01;;;;;;;1.83;1.70;;;11.30;99.90;;;;;;5093718;28;20332;-69
2021/05/27 02:30:28;;;;;;;1.70;1.60;;;11.30;99.90;;;;;;5093851;28;20541;-69
2021/05/27 02:32:54;;;;;;;1.90;1.80;;;11.40;99.90;;;;;;5093719;28;20289;-69
2021/05/27 02:35:20;;;;;;;1.92;1.70;;;11.30;99.90;;;;;;5093512;28;20317;-69
2021/05/27 02:37:47;;;;;;;2.17;1.83;;;11.40;99.90;;;;;;5093622;28;20208;-70
2021/05/27 02:40:14;;;;;;;1.90;1.60;;;11.40;99.90;;;;;;5093771;28;20379;-69
2021/05/27 02:42:40;;;;;;;1.60;1.50;;;11.40;99.90;;;;;;5093456;28;20683;-69
2021/05/27 02:45:07;;;;;;;1.50;1.48;;;11.40;99.90;;;;;;5093350;28;20194;-69
2021/05/27 02:47:34;;;;;;;1.90;1.80;;;11.40;99.90;;;;;;5093144;28;20657;-69
2021/05/27 02:50:01;;;;;;;1.70;1.60;;;11.40;99.90;;;;;;5093942;28;20298;-69
2021/05/27 02:52:27;;;;;;;2.40;2.20;;;11.50;99.90;;;;;;5093466;28;20760;-69
2021/05/27 02:54:53;;;;;;;2.85;2.15;;;11.40;99.90;;;;;;5093456;28;20226;-69
2021/05/27 02:57:20;;;;;;;2.53;2.08;;;11.40;99.90;;;;;;5093318;28;20560;-69
2021/05/27 02:59:46;;;;;;;3.92;1.95;;;11.40;99.90;;;;;;5095949;28;20225;-69
2021/05/27 03:02:12;;;;;;;2.00;1.65;;;11.40;99.90;;;;;;5097552;28;20298;-69
2021/05/27 03:04:40;;;;;;;2.20;2.00;;;11.40;99.90;;;;;;5097271;28;20674;-69
2021/05/27 03:07:06;;;;;;;1.90;1.80;;;11.40;99.90;;;;;;5097328;28;20563;-69
2021/05/27 03:09:32;;;;;;;2.38;2.13;;;11.40;99.90;;;;;;5097124;28;20232;-69
2021/05/27 03:11:59;;;;;;;2.08;1.88;;;11.40;99.90;;;;;;5097378;28;20288;-69
2021/05/27 03:14:25;;;;;;;1.70;1.60;;;11.40;99.90;;;;;;5097180;28;20779;-69
2021/05/27 03:16:51;;;;;;;2.22;2.00;;;11.40;99.90;;;;;;5097151;28;20609;-69
2021/05/27 03:19:18;;;;;;;2.33;1.55;;;11.40;99.90;;;;;;5097218;28;20228;-69
2021/05/27 03:21:46;;;;;;;1.60;1.50;;;11.40;99.90;;;;;;5097251;28;20597;-69
2021/05/27 03:24:12;;;;;;;1.65;1.55;;;11.50;99.90;;;;;;5097523;28;20206;-69
2021/05/27 03:26:39;;;;;;;1.85;1.75;;;11.50;99.90;;;;;;5096775;28;20316;-69
2021/05/27 03:29:05;;;;;;;2.00;1.80;;;11.50;99.90;;;;;;5096812;28;20694;-69
2021/05/27 03:31:31;;;;;;;1.70;1.52;;;11.50;99.90;;;;;;5096953;28;20202;-69
2021/05/27 03:33:58;;;;;;;1.90;1.80;;;11.50;99.90;;;;;;5096938;28;20559;-69
2021/05/27 03:36:24;;;;;;;2.03;1.80;;;11.50;99.90;;;;;;5096592;28;20655;-69
2021/05/27 03:38:51;;;;;;;1.70;1.60;;;11.50;99.90;;;;;;5096707;28;20223;-69
2021/05/27 03:41:18;;;;;;;4.47;2.20;;;11.50;99.90;;;;;;5096911;28;20296;-70
2021/05/27 03:43:44;;;;;;;1.95;1.73;;;11.50;99.90;;;;;;5096516;28;20221;-69
2021/05/27 03:46:10;;;;;;;3.13;1.85;;;11.50;99.90;;;;;;5096373;28;20284;-69
2021/05/27 03:48:37;;;;;;;3.30;2.20;;;11.40;99.90;;;;;;5096626;28;20304;-69
2021/05/27 03:51:04;;;;;;;1.95;1.75;;;11.40;99.90;;;;;;5096650;28;20301;-69
2021/05/27 03:53:30;;;;;;;2.17;1.98;;;11.30;99.90;;;;;;5096562;28;20289;-69
2021/05/27 03:55:58;;;;;;;2.78;2.10;;;11.30;99.90;;;;;;5096234;28;20304;-69
2021/05/27 04:01:08;;;;;;;2.25;2.03;;;11.30;99.90;;;;;;5096764;28;20704;-69
2021/05/27 04:08:59;;;;;;;2.05;1.85;;;11.40;99.90;;;;;;5096262;28;20621;-69
2021/05/27 04:11:27;;;;;;;2.47;2.28;;;11.30;99.90;;;;;;5095912;28;20210;-69
2021/05/27 04:13:53;;;;;;;3.13;2.05;;;11.40;99.90;;;;;;5096222;28;20324;-69
2021/05/27 04:16:19;;;;;;;2.42;1.80;;;11.40;99.90;;;;;;5095781;28;20226;-69
2021/05/27 04:18:45;;;;;;;2.70;2.50;;;11.40;99.90;;;;;;5096006;28;20230;-69
2021/05/27 04:21:12;;;;;;;1.88;1.58;;;11.40;99.90;;;;;;5095815;28;20198;-69
2021/05/27 04:23:39;;;;;;;2.58;2.13;;;11.30;99.90;;;;;;5095793;28;20237;-69
2021/05/27 04:26:07;;;;;;;1.80;1.70;;;11.20;99.90;;;;;;5095725;28;20206;-69
2021/05/27 04:28:34;;;;;;;2.20;2.00;;;11.00;99.90;;;;;;5095872;28;20222;-69
2021/05/27 04:31:12;;;;;;;2.30;2.10;;;10.90;99.90;;;;;;5095943;28;20243;-69
2021/05/27 04:33:40;;;;;;;4.00;2.15;;;10.80;99.90;;;;;;5095762;28;20205;-69
2021/05/27 04:36:07;;;;;;;2.55;2.28;;;10.80;99.90;;;;;;5095601;28;20646;-69
2021/05/27 04:38:34;;;;;;;3.45;2.30;;;10.70;99.90;;;;;;5095374;28;20218;-69
2021/05/27 04:41:00;;;;;;;3.28;2.30;;;10.60;99.90;;;;;;5095783;28;20293;-69
2021/05/27 04:43:27;;;;;;;3.05;2.13;;;10.70;99.90;;;;;;5095577;28;20206;-69
2021/05/27 04:45:54;;;;;;;2.75;2.47;;;10.70;99.90;;;;;;5095346;28;20293;-69
2021/05/27 04:48:20;;;;;;;2.25;2.03;;;10.70;99.90;;;;;;5095194;28;20228;-69
2021/05/27 04:50:49;;;;;;;2.10;1.90;;;10.70;99.90;;;;;;5095512;28;20283;-69
2021/05/27 04:53:17;;;;;;;2.22;2.03;;;10.80;99.90;;;;;;5095458;28;20583;-70
2021/05/27 04:55:44;;;;;;;3.50;2.75;;;10.80;99.90;;;;;;5095101;28;20222;-70
2021/05/27 04:58:11;;;;;;;6.22;2.50;;;10.90;99.90;;;;;;5095200;28;20313;-70
2021/05/27 05:00:37;;;;;;;2.25;2.05;;;11.00;99.90;;;;;;5095297;28;20297;-70
2021/05/27 05:03:05;;;;;;;2.60;2.40;;;11.10;99.90;;;;;;5095224;28;20288;-70
2021/05/27 05:05:33;;;;;;;2.58;2.38;;;11.10;99.90;;;;;;5094846;28;20656;-70
2021/05/27 05:08:00;;;;;;;2.38;2.05;;;11.20;99.90;;;;;;5094877;28;20322;-70
2021/05/27 05:10:28;;;;;;;2.17;2.00;;;11.20;99.90;;;;;;5094824;28;20301;-70
2021/05/27 05:12:55;;;;;;;2.03;1.90;;;11.30;99.90;;;;;;5095230;28;20198;-69
2021/05/27 05:15:23;;;;;;;3.80;2.40;;;11.30;99.90;;;;;;5094723;28;20653;-70
2021/05/27 05:17:51;;;;;;;2.42;2.05;;;11.30;99.90;;;;;;5094883;28;20609;-70
2021/05/27 05:20:20;;;;;;;2.78;2.45;;;11.40;99.90;;;;;;5095215;28;20597;-69
2021/05/27 05:22:46;;;;;;;2.00;1.85;;;11.30;99.90;;;;;;5094408;28;20238;-69
2021/05/27 05:25:14;;;;;;;2.92;2.65;;;11.30;99.90;;;;;;5094845;28;20202;-69
2021/05/27 05:27:40;;;;;;;2.85;2.58;;;11.30;99.90;;;;;;5094453;28;20198;-70
2021/05/27 05:30:08;;;;;;;3.00;2.40;;;11.40;99.90;;;;;;5095511;28;20202;-70
2021/05/27 05:32:34;;;;;;;2.70;2.00;;;11.40;99.90;;;;;;5094684;28;20331;-70
2021/05/27 05:35:01;;;;;;;2.70;2.13;;;11.50;99.90;;;;;;5094441;28;20308;-70
2021/05/27 05:37:29;;;;;;;3.47;2.15;;;11.50;99.90;;;;;;5094436;28;20283;-70
2021/05/27 05:39:55;;;;;;;2.97;2.10;;;11.60;99.90;;;;;;5094211;28;20890;-69
2021/05/27 05:42:21;;;;;;;2.47;2.25;;;11.50;99.90;;;;;;5094257;28;20220;-70
2021/05/27 05:44:48;;;;;;;3.35;2.95;;;11.50;99.90;;;;;;5094531;28;20603;-69
2021/05/27 05:47:14;;;;;;;2.63;2.42;;;11.50;99.90;;;;;;5094103;28;20292;-70
2021/05/27 05:49:41;;;;;;;2.80;2.35;;;11.50;99.90;;;;;;5094420;28;20236;-69
2021/05/27 05:52:07;;;;;;;3.60;2.90;;;11.50;99.90;;;;;;5094389;28;20230;-69
2021/05/27 05:54:35;;;;;;;2.13;2.00;;;11.50;99.90;;;;;;5094453;28;20293;-70
2021/05/27 05:57:01;;;;;;;2.08;1.98;;;11.60;99.90;;;;;;5093860;28;20236;-70
2021/05/27 05:59:27;;;;;;;3.05;2.30;;;11.70;99.90;;;;;;5094194;28;20268;-70
2021/05/27 06:01:55;;;;;;;2.33;2.13;;;11.70;99.90;;;;;;5094214;28;20289;-69
2021/05/27 06:04:21;;;;;;;2.47;2.17;;;11.80;99.90;;;;;;5094148;28;20213;-69
2021/05/27 06:06:47;;;;;;;2.60;2.40;;;11.80;99.90;;;;;;5093780;28;20206;-69
2021/05/27 06:09:14;;;;;;;2.30;2.10;;;11.80;99.90;;;;;;5093982;28;20229;-70
2021/05/27 06:11:42;;;;;;;2.20;2.03;;;11.90;99.90;;;;;;5093717;28;20672;-70
2021/05/27 06:14:08;;;;;;;2.83;2.63;;;11.90;99.90;;;;;;5094002;28;20201;-69
2021/05/27 06:16:34;;;;;;;2.45;2.00;;;12.00;99.90;;;;;;5093717;28;20228;-69
2021/05/27 06:19:01;;;;;;;2.20;1.92;;;12.00;99.90;;;;;;5093866;28;20230;-70
2021/05/27 06:21:27;;;;;;;3.30;2.20;;;11.90;99.90;;;;;;5093958;28;20723;-70
2021/05/27 06:23:53;;;;;;;2.78;2.40;;;12.10;99.90;;;;;;5093823;28;20339;-70
2021/05/27 06:26:20;;;;;;;2.33;2.22;;;12.10;99.90;;;;;;5093419;28;20729;-70
2021/05/27 06:28:47;;;;;;;2.85;2.63;;;12.10;99.90;;;;;;5093813;28;20309;-69
2021/05/27 06:31:13;;;;;;;2.78;2.28;;;12.20;99.90;;;;;;5093825;28;20293;-69
2021/05/27 06:33:40;;;;;;;1.95;1.80;;;12.20;99.90;;;;;;5093810;28;20255;-69
2021/05/27 06:36:07;;;;;;;2.20;2.05;;;12.30;99.90;;;;;;5093585;28;20218;-70
2021/05/27 06:38:33;;;;;;;2.60;2.30;;;12.40;99.90;;;;;;5093473;28;20806;-70
2021/05/27 06:41:00;;;;;;;2.30;2.10;;;12.50;99.90;;;;;;5093676;28;20202;-70
2021/05/27 06:43:27;;;;;;;2.05;1.90;;;12.70;99.90;;;;;;5093543;28;20209;-69
2021/05/27 06:45:55;;;;;;;3.55;2.60;;;12.70;99.90;;;;;;5093399;28;20285;-70
2021/05/27 06:48:21;;;;;;;3.22;2.28;;;12.70;99.90;;;;;;5093467;28;20724;-70
2021/05/27 06:50:48;;;;;;;2.65;2.05;;;12.70;99.90;;;;;;5093630;28;20202;-70
2021/05/27 06:53:16;;;;;;;2.47;2.03;;;12.80;99.90;;;;;;5093488;28;20623;-70
2021/05/27 06:55:43;;;;;;;1.75;1.65;;;12.90;99.90;;;;;;5093035;28;20699;-70
2021/05/27 06:58:10;;;;;;;2.00;1.90;;;12.90;99.90;;;;;;5093501;28;20305;-70
2021/05/27 07:00:37;;;;;;;2.22;1.77;;;13.00;99.90;;;;;;5093779;28;20237;-70
2021/05/27 07:03:06;;;;;;;2.47;1.90;;;13.10;99.90;;;;;;5093504;28;20571;-69
2021/05/27 07:05:33;;;;;;;2.58;2.00;;;13.10;99.90;;;;;;5093192;28;20347;-70
2021/05/27 07:08:01;;;;;;;2.50;1.80;;;13.20;99.90;;;;;;5093349;28;20312;-70
2021/05/27 07:10:29;;;;;;;2.10;1.90;;;13.30;99.90;;;;;;5093183;28;20229;-70
2021/05/27 07:12:59;;;;;;;3.60;1.98;;;13.30;99.90;;;;;;5093617;28;20256;-70
2021/05/27 07:15:26;;;;;;;1.73;1.63;;;13.40;99.90;;;;;;5093113;28;20221;-70
2021/05/27 07:17:55;;;;;;;1.80;1.70;;;13.60;99.90;;;;;;5093237;28;20665;-70
2021/05/27 07:20:23;;;;;;;1.80;1.70;;;13.80;99.90;;;;;;5093358;28;20201;-70
2021/05/27 07:22:51;;;;;;;4.80;1.95;;;13.80;99.90;;;;;;5093283;28;20198;-70
2021/05/27 07:25:20;;;;;;;1.85;1.67;;;13.80;99.90;;;;;;5093073;28;20309;-71
2021/05/27 07:27:48;;;;;;;1.75;1.65;;;13.90;99.90;;;;;;5093154;28;20260;-70
2021/05/27 07:30:15;;;;;;;1.88;1.65;;;13.90;99.90;;;;;;5093281;28;20271;-70
2021/05/27 07:32:41;;;;;;;3.33;1.90;;;13.80;99.90;;;;;;5093092;28;20246;-70
2021/05/27 07:35:08;;;;;;;1.90;1.80;;;13.60;99.90;;;;;;5093117;28;20226;-70
2021/05/27 07:37:35;;;;;;;2.65;1.85;;;13.50;99.90;;;;;;5092960;28;20293;-69
2021/05/27 07:40:02;;;;;;;2.22;2.03;;;13.40;99.90;;;;;;5093194;28;20289;-70
2021/05/27 07:42:29;;;;;;;2.15;1.95;;;13.30;99.90;;;;;;5093012;28;20267;-70
2021/05/27 07:44:55;;;;;;;1.95;1.63;;;13.40;99.90;;;;;;5094059;28;20285;-70
2021/05/27 07:47:21;;;;;;;1.63;1.52;;;13.70;99.90;;;;;;5096324;28;20285;-70
2021/05/27 07:49:49;;;;;;;2.45;1.60;;;14.00;99.90;;;;;;5096721;28;20694;-70
2021/05/27 07:52:15;;;;;;;1.92;1.70;;;14.20;99.90;;;;;;5096674;28;20627;-70
2021/05/27 07:54:43;;;;;;;1.80;1.70;;;14.40;99.60;;;;;;5096553;28;20232;-70
2021/05/27 07:57:09;;;;;;;1.70;1.60;;;14.60;97.50;;;;;;5096405;28;20229;-70
2021/05/27 07:59:35;;;;;;;1.85;1.75;;;14.70;95.90;;;;;;5096207;28;20789;-70
2021/05/27 08:02:02;;;;;;;1.77;1.67;;;15.00;96.30;;;;;;5096453;28;20203;-70
2021/05/27 08:04:28;;;;;;;2.15;1.70;;;15.00;94.20;;;;;;5096453;28;20239;-70
2021/05/27 08:06:55;;;;;;;1.92;1.83;;;15.40;94.40;;;;;;5096031;28;20208;-70
2021/05/27 08:09:22;;;;;;;4.18;2.03;;;15.70;94.70;;;;;;5096020;28;20233;-70
2021/05/27 08:11:49;;;;;;;1.80;1.70;;;16.20;93.00;;;;;;5096203;28;20295;-70
2021/05/27 08:14:15;;;;;;;1.83;1.73;;;17.10;91.40;;;;;;5096212;28;20202;-70
2021/05/27 08:16:42;;;;;;;1.90;1.80;;;18.10;86.10;;;;;;5095974;28;20222;-70
2021/05/27 08:19:08;;;;;;;1.92;1.83;;;18.20;83.60;;;;;;5096156;28;20271;-70
2021/05/27 08:21:34;;;;;;;2.03;1.70;;;17.90;81.20;;;;;;5096108;28;20206;-70
2021/05/27 08:24:01;;;;;;;2.22;1.92;;;17.90;82.50;;;;;;5096062;28;20229;-70
2021/05/27 08:26:27;;;;;;;1.60;1.50;;;18.00;83.20;;;;;;5095934;28;20209;-70
2021/05/27 08:28:54;;;;;;;2.10;1.90;;;18.90;81.10;;;;;;5095904;28;20311;-70
2021/05/27 08:31:21;;;;;;;1.73;1.50;;;20.40;76.30;;;;;;5095901;28;20529;-70
2021/05/27 08:33:48;;;;;;;1.98;1.88;;;20.40;73.50;;;;;;5095856;28;20466;-70
2021/05/27 08:36:16;;;;;;;1.63;1.52;;;19.60;73.60;;;;;;5095345;28;20699;-70
2021/05/27 08:38:42;;;;;;;1.80;1.53;;;19.10;74.80;;;;;;5095717;28;20260;-70
2021/05/27 08:41:09;;;;;;;1.93;1.63;;;20.60;74.00;;;;;;5095755;28;20444;-68
2021/05/27 08:43:35;;;;;;;1.80;1.70;;;23.20;60.80;;;;;;5095471;28;20487;-68
2021/05/27 08:46:05;;;;;;;1.80;1.70;;;24.80;56.60;;;;;;5095447;28;20522;-70
2021/05/27 08:48:32;;;;;;;1.73;1.63;;;24.00;51.60;;;;;;5095508;28;20551;-70
2021/05/27 08:50:59;;;;;;;1.57;1.47;;;23.40;53.90;;;;;;5095531;28;20443;-70
2021/05/27 08:53:27;;;;;;;1.70;1.60;;;23.20;53.40;;;;;;5095412;28;20775;-70
2021/05/27 08:55:53;;;;;;;1.57;1.47;;;22.90;54.10;;;;;;5094434;28;20477;-71
2021/05/27 08:58:21;;;;;;;1.90;1.80;;;24.20;52.90;;;;;;5094865;28;20464;-68
2021/05/27 09:00:47;;;;;;;1.40;1.30;;;25.50;49.70;;;;;;5095321;28;20440;-68
2021/05/27 09:03:16;;;;;;;3.10;2.40;;;25.60;50.90;;;;;;5095461;28;20501;-68
2021/05/27 09:05:42;;;;;;;1.93;1.80;;;26.10;47.10;;;;;;5095087;28;20448;-68
2021/05/27 09:08:09;;;;;;;1.70;1.60;;;26.00;46.20;;;;;;5095047;28;20546;-68
2021/05/27 09:10:41;;;;;;;2.80;1.87;;;25.60;46.20;;;;;;5095138;28;20444;-68
2021/05/27 09:13:12;;;;;;;1.57;1.50;;;26.20;45.20;;;;;;5095228;28;20527;-68
2021/05/27 09:15:39;;;;;;;1.80;1.70;;;27.30;44.70;;;;;;5094894;28;20475;-69
2021/05/27 09:18:06;;;;;;;1.83;1.73;;;27.90;41.60;;;;;;5094804;28;20479;-68
2021/05/27 09:20:34;;;;;;;1.40;1.30;;;29.00;40.20;;;;;;5095293;28;20443;-68
2021/05/27 09:23:21;;;;;;;3.40;1.67;;;28.70;38.50;;;;;;5094898;28;20439;-68
2021/05/27 09:25:50;;;;;;;1.70;1.60;;;27.90;39.40;;;;;;5089702;28;20799;-68
2021/05/27 09:28:23;;;;;;;1.60;1.50;;;25.70;40.30;;;;;;5094733;28;20476;-70
2021/05/27 09:30:51;;;;;;;1.80;1.70;;;23.40;44.20;;;;;;5094828;28;20447;-70
2021/05/27 09:33:18;;;;;;;1.70;1.60;;;22.20;48.60;;;;;;5094703;28;20440;-70
2021/05/27 09:35:46;;;;;;;1.70;1.60;;;23.00;47.40;;;;;;5094432;28;20570;-70
2021/05/27 09:38:13;;;;;;;1.93;1.80;;;23.10;46.50;;;;;;5094287;28;21039;-70
2021/05/27 09:40:42;;;;;;;1.70;1.60;;;21.20;48.10;;;;;;5094584;28;20474;-70
2021/05/27 09:43:10;;;;;;;2.77;1.47;;;20.40;53.40;;;;;;5094359;28;20499;-70
2021/05/27 09:45:38;;;;;;;2.95;1.30;;;19.70;53.60;;;;;;5094257;28;20520;-70
2021/05/27 09:48:20;;;;;;;1.30;1.23;;;19.00;54.50;;;;;;5094333;28;20219;-69
2021/05/27 09:50:48;;;;;;;1.70;1.60;;;18.60;56.90;;;;;;5094179;28;20201;-69
2021/05/27 09:53:17;;;;;;;1.30;1.30;;;17.70;57.90;;;;;;5094409;28;20267;-69
2021/05/27 09:55:44;;;;;;;3.17;1.70;;;17.20;60.20;;;;;;5094019;28;20226;-69
2021/05/27 09:58:12;;;;;;;1.50;1.40;;;16.90;60.70;;;;;;5094238;28;20224;-69
2021/05/27 10:00:39;;;;;;;2.38;1.50;;;16.90;64.40;;;;;;5094251;28;20627;-69
2021/05/27 10:03:24;;;;;;;1.58;1.48;;;17.10;62.90;;;;;;5093943;28;20206;-69
2021/05/27 10:05:52;;;;;;;1.40;1.40;;;17.30;62.60;;;;;;5093766;28;20255;-69
2021/05/27 10:08:19;;;;;;;3.35;1.80;;;17.20;61.70;;;;;;5093748;28;20222;-69
2021/05/27 10:10:46;;;;;;;1.52;1.20;;;17.10;62.40;;;;;;5094089;28;20210;-69
2021/05/27 10:13:13;;;;;;;2.80;1.90;;;17.00;64.30;;;;;;5094018;28;20202;-69
2021/05/27 10:15:42;;;;;;;1.88;1.67;;;17.80;62.10;;;;;;5093738;28;20226;-70
2021/05/27 10:18:10;;;;;;;1.60;1.50;;;18.20;59.60;;;;;;5093827;28;20225;-69
2021/05/27 10:20:36;;;;;;;2.28;1.50;;;17.90;59.90;;;;;;5094245;28;20198;-69
2021/05/27 10:23:05;;;;;;;2.03;1.55;;;17.50;61.70;;;;;;5093886;28;20201;-69
2021/05/27 10:25:32;;;;;;;1.65;1.45;;;17.20;63.70;;;;;;5093585;28;20288;-69
2021/05/27 10:28:02;;;;;;;1.75;1.65;;;16.80;63.50;;;;;;5093777;28;20772;-70
2021/05/27 10:30:30;;;;;;;1.70;1.60;;;16.60;64.60;;;;;;5093995;28;20312;-69
2021/05/27 10:33:00;;;;;;;2.95;1.60;;;16.40;66.00;;;;;;5093758;28;20299;-69
2021/05/27 10:35:45;;;;;;;3.70;2.00;;;16.30;67.50;;;;;;5093722;28;20252;-69
2021/05/27 10:38:13;;;;;;;1.80;1.70;;;16.20;68.20;;;;;;5093621;28;20316;-69
2021/05/27 10:40:42;;;;;;;3.03;1.88;;;16.00;67.10;;;;;;5093598;28;20292;-69
2021/05/27 10:43:13;;;;;;;1.77;1.67;;;15.70;68.40;;;;;;5093477;28;20243;-69
2021/05/27 10:46:18;;;;;;;1.92;1.80;;;15.50;69.40;;;;;;5093337;28;20258;-69
2021/05/27 10:48:46;;;;;;;3.45;1.80;;;15.40;70.10;;;;;;5093451;28;20310;-69
2021/05/27 10:51:18;;;;;;;2.25;2.05;;;15.40;73.10;;;;;;5093653;28;20291;-69
2021/05/27 10:53:54;;;;;;;1.80;1.70;;;15.30;75.60;;;;;;5093604;28;20544;-69
2021/05/27 10:56:22;;;;;;;1.75;1.60;;;15.20;76.20;;;;;;5093117;28;20315;-69
2021/05/27 10:59:03;;;;;;;2.30;2.05;;;15.20;76.70;;;;;;5093433;28;20582;-69
2021/05/27 11:01:51;;;;;;;2.20;2.10;;;15.40;77.70;;;;;;5093750;28;20212;-69
2021/05/27 11:04:28;;;;;;;2.60;2.40;;;15.70;79.00;;;;;;5093542;28;20291;-69
2021/05/27 11:07:24;;;;;;;1.95;1.85;;;15.90;76.40;;;;;;5093446;28;20223;-69
2021/05/27 11:09:56;;;;;;;2.15;1.90;;;16.10;78.00;;;;;;5093466;28;20306;-69
2021/05/27 11:12:24;;;;;;;3.28;2.95;;;16.20;76.70;;;;;;5093475;28;20260;-69
2021/05/27 11:15:17;;;;;;;2.60;2.38;;;16.20;79.00;;;;;;5093413;28;20254;-69
2021/05/27 11:18:01;;;;;;;1.98;1.88;;;16.10;76.60;;;;;;5093137;28;20299;-69
2021/05/27 11:20:30;;;;;;;8.45;6.10;;;16.40;78.40;;;;;;5095272;28;20292;-69
2021/05/27 11:23:08;;;;;;;2.20;2.00;;;16.90;76.60;;;;;;5097101;28;20705;-69
2021/05/27 11:25:40;;;;;;;1.88;1.70;;;17.40;72.70;;;;;;5097191;28;20262;-70
2021/05/27 11:28:27;;;;;;;2.33;1.92;;;17.60;72.10;;;;;;5097078;28;20253;-70
2021/05/27 11:30:57;;;;;;;2.80;2.15;;;17.70;71.50;;;;;;5097145;28;20198;-69
2021/05/27 11:33:35;;;;;;;2.15;2.05;;;17.50;71.70;;;;;;5097018;28;20206;-69
2021/05/27 11:36:09;;;;;;;1.80;1.70;;;17.20;72.30;;;;;;5096921;28;20313;-69
2021/05/27 11:38:36;;;;;;;1.55;1.45;;;17.10;72.50;;;;;;5096803;28;20274;-69
2021/05/27 11:41:06;;;;;;;1.88;1.70;;;17.10;69.70;;;;;;5096901;28;20232;-69
2021/05/27 11:43:33;;;;;;;2.20;2.00;;;17.10;69.50;;;;;;5096816;28;20296;-69
2021/05/27 11:46:04;;;;;;;1.55;1.45;;;17.20;68.50;;;;;;5096625;28;20289;-69
2021/05/27 11:48:32;;;;;;;1.80;1.70;;;17.40;69.10;;;;;;5096523;28;20773;-69
2021/05/27 11:51:01;;;;;;;2.60;1.70;;;17.60;68.40;;;;;;5096759;28;20304;-69
2021/05/27 11:53:38;;;;;;;1.90;1.80;;;17.50;67.40;;;;;;5096668;28;20217;-69
2021/05/27 11:56:05;;;;;;;3.25;2.10;;;17.20;68.00;;;;;;5096327;28;20312;-70
2021/05/27 11:58:37;;;;;;;1.90;1.70;;;17.00;68.60;;;;;;5096286;28;20312;-69
2021/05/27 12:01:17;;;;;;;1.90;1.80;;;16.80;71.20;;;;;;5096619;28;20205;-69
2021/05/27 12:04:07;;;;;;;2.78;1.80;;;16.60;70.90;;;;;;5096489;28;20205;-69
2021/05/27 12:07:02;;;;;;;1.92;1.83;;;16.50;71.40;;;;;;5096117;28;20230;-69
2021/05/27 12:09:36;;;;;;;1.80;1.70;;;16.50;71.60;;;;;;5060834;28;20632;-69
2021/05/27 12:12:24;;;;;;;2.38;2.05;;;16.60;74.00;;;;;;5096367;28;20607;-69
2021/05/27 12:14:53;;;;;;;2.00;1.90;;;16.80;73.30;;;;;;5096254;28;20552;-69
2021/05/27 12:17:29;;;;;;;3.53;1.80;;;17.00;74.40;;;;;;5096205;28;20217;-69
2021/05/27 12:19:58;;;;;;;5.32;2.10;;;17.10;73.30;;;;;;5096391;28;20256;-69
2021/05/27 12:22:24;;;;;;;3.67;1.90;;;17.10;70.60;;;;;;5096284;28;20208;-69
2021/05/27 12:25:09;;;;;;;2.00;1.90;;;17.30;70.00;;;;;;5096114;28;20668;-69
2021/05/27 12:27:44;;;;;;;1.52;1.42;;;17.70;69.50;;;;;;5095817;28;20289;-69
2021/05/27 12:30:13;;;;;;;1.90;1.77;;;18.10;71.10;;;;;;5095900;28;20305;-69
2021/05/27 12:32:44;;;;;;;1.70;1.60;;;18.20;66.10;;;;;;5095867;28;20212;-69
2021/05/27 12:35:19;;;;;;;1.60;1.40;;;17.80;65.10;;;;;;5095579;28;20233;-69
2021/05/27 12:37:48;;;;;;;1.92;1.73;;;17.80;66.70;;;;;;5095727;28;20378;-69
2021/05/27 12:40:23;;;;;;;4.60;1.75;;;17.80;67.10;;;;;;5096161;28;20199;-69
2021/05/27 12:42:51;;;;;;;4.03;1.83;;;17.70;67.80;;;;;;5095596;28;20216;-69
2021/05/27 12:45:32;;;;;;;6.15;1.77;;;17.80;68.60;;;;;;5095521;28;20297;-70
2021/05/27 12:48:11;;;;;;;1.25;1.25;;;18.00;69.50;;;;;;5095553;28;20258;-70
2021/05/27 12:50:40;;;;;;;1.70;1.60;;;18.20;66.60;;;;;;5095648;28;20191;-69
2021/05/27 12:53:22;;;;;;;2.70;1.90;;;18.50;64.70;;;;;;5095529;28;20288;-69
2021/05/27 12:55:48;;;;;;;1.58;1.48;;;18.40;63.00;;;;;;5095236;28;20237;-70
2021/05/27 12:58:30;;;;;;;2.85;1.80;;;18.30;66.10;;;;;;5095321;28;20222;-69
2021/05/27 13:00:58;;;;;;;2.35;1.80;;;18.10;67.50;;;;;;5095431;28;20596;-69
2021/05/27 13:03:24;;;;;;;1.98;1.80;;;18.00;69.20;;;;;;5095467;28;20206;-69
2021/05/27 13:06:09;;;;;;;1.70;1.60;;;17.60;68.20;;;;;;5095067;28;20285;-69